createdAt,value
2023-05-13T00:01:46.089Z,0.40
2023-05-13T00:04:13.517Z,0.40
2023-05-13T00:06:41.213Z,0.30
2023-05-13T00:09:08.725Z,0.40
2023-05-13T00:11:36.150Z,0.30
2023-05-13T00:14:03.825Z,0.30
2023-05-13T00:16:32.624Z,0.30
2023-05-13T00:19:00.154Z,0.50
2023-05-13T00:21:29.034Z,0.30
2023-05-13T00:23:57.087Z,0.40
2023-05-13T00:26:25.848Z,0.40
2023-05-13T00:28:53.976Z,0.30
2023-05-13T00:31:21.688Z,0.38
2023-05-13T00:33:50.627Z,0.30
2023-05-13T00:36:18.088Z,0.30
2023-05-13T00:38:45.477Z,0.40
2023-05-13T00:41:13.080Z,0.38
2023-05-13T00:43:40.532Z,0.40
2023-05-13T00:46:08.105Z,0.30
2023-05-13T00:48:35.609Z,0.30
2023-05-13T00:51:05.232Z,0.40
2023-05-13T00:53:33.432Z,0.30
2023-05-13T00:56:00.973Z,0.35
2023-05-13T00:58:28.824Z,0.30
2023-05-13T01:01:00.219Z,0.40
2023-05-13T01:03:30.432Z,0.40
2023-05-13T01:06:06.543Z,0.40
2023-05-13T01:08:38.587Z,0.30
2023-05-13T01:11:09.890Z,0.32
2023-05-13T01:13:43.262Z,0.32
2023-05-13T01:16:13.715Z,0.40
2023-05-13T01:18:43.077Z,0.40
2023-05-13T01:21:11.586Z,0.30
2023-05-13T01:23:40.390Z,0.30
2023-05-13T01:26:07.878Z,0.30
2023-05-13T01:28:35.685Z,0.30
2023-05-13T01:31:06.798Z,0.30
2023-05-13T01:33:34.388Z,0.40
2023-05-13T01:36:03.561Z,0.40
2023-05-13T01:38:31.857Z,0.40
2023-05-13T01:41:01.787Z,0.30
2023-05-13T01:43:31.206Z,0.40
2023-05-13T01:46:00.314Z,0.35
2023-05-13T01:48:29.011Z,0.30
2023-05-13T01:50:56.714Z,0.40
2023-05-13T01:53:24.448Z,0.40
2023-05-13T01:55:53.788Z,0.30
2023-05-13T01:58:23.429Z,0.32
2023-05-13T02:00:50.975Z,0.40
2023-05-13T02:03:19.038Z,0.40
2023-05-13T02:05:47.227Z,0.30
2023-05-13T02:08:14.835Z,0.25
2023-05-13T02:10:42.265Z,0.50
2023-05-13T02:13:09.995Z,0.40
2023-05-13T02:15:38.823Z,0.40
2023-05-13T02:18:06.407Z,0.30
2023-05-13T02:20:33.916Z,0.35
2023-05-13T02:23:01.834Z,0.25
2023-05-13T02:25:29.367Z,0.40
2023-05-13T02:27:56.771Z,0.35
2023-05-13T02:30:26.865Z,0.40
2023-05-13T02:32:56.295Z,0.30
2023-05-13T02:35:25.324Z,0.40
2023-05-13T02:37:52.817Z,0.40
2023-05-13T02:40:20.689Z,0.30
2023-05-13T02:42:49.553Z,0.30
2023-05-13T02:45:21.220Z,0.40
2023-05-13T02:47:53.383Z,0.30
2023-05-13T02:50:22.429Z,0.38
2023-05-13T02:52:50.225Z,0.30
2023-05-13T02:55:18.137Z,0.30
2023-05-13T02:57:45.641Z,0.47
2023-05-13T03:00:13.646Z,0.30
2023-05-13T03:02:41.262Z,0.40
2023-05-13T03:05:09.253Z,0.50
2023-05-13T03:07:38.008Z,0.40
2023-05-13T03:10:06.198Z,0.30
2023-05-13T03:12:33.692Z,0.38
2023-05-13T03:15:02.464Z,0.35
2023-05-13T03:17:30.827Z,0.40
2023-05-13T03:19:58.707Z,0.38
2023-05-13T03:22:26.293Z,0.40
2023-05-13T03:24:55.205Z,0.38
2023-05-13T03:27:26.034Z,0.40
2023-05-13T03:29:53.482Z,0.30
2023-05-13T03:32:21.202Z,0.40
2023-05-13T03:34:48.720Z,0.40
2023-05-13T03:37:17.642Z,0.30
2023-05-13T03:39:45.135Z,0.30
2023-05-13T03:42:14.459Z,0.30
2023-05-13T03:44:42.019Z,0.38
2023-05-13T03:47:11.600Z,0.38
2023-05-13T03:49:39.396Z,0.30
2023-05-13T03:52:07.925Z,0.30
2023-05-13T03:54:35.678Z,0.35
2023-05-13T03:57:03.487Z,0.32
2023-05-13T03:59:32.239Z,0.30
2023-05-13T04:01:59.700Z,0.40
2023-05-13T04:04:27.168Z,0.40
2023-05-13T04:06:54.641Z,0.32
2023-05-13T04:09:22.046Z,0.30
2023-05-13T04:11:49.855Z,0.35
2023-05-13T04:14:17.302Z,0.40
2023-05-13T04:16:46.104Z,0.47
2023-05-13T04:19:13.967Z,0.30
2023-05-13T04:21:41.444Z,0.30
2023-05-13T04:24:08.943Z,0.30
2023-05-13T04:26:38.654Z,0.30
2023-05-13T04:29:06.215Z,0.30
2023-05-13T04:31:33.813Z,0.30
2023-05-13T04:34:02.820Z,0.30
2023-05-13T04:36:31.190Z,0.30
2023-05-13T04:38:58.657Z,0.30
2023-05-13T04:41:26.080Z,0.38
2023-05-13T04:43:53.512Z,0.40
2023-05-13T04:46:21.000Z,0.30
2023-05-13T04:48:50.760Z,0.30
2023-05-13T04:51:21.017Z,0.40
2023-05-13T04:53:49.249Z,0.30
2023-05-13T04:56:17.056Z,0.30
2023-05-13T04:58:44.488Z,0.30
2023-05-13T05:01:14.395Z,0.30
2023-05-13T05:03:41.934Z,0.38
2023-05-13T05:06:09.833Z,0.30
2023-05-13T05:08:38.727Z,0.28
2023-05-13T05:11:06.468Z,0.40
2023-05-13T05:13:35.950Z,0.32
2023-05-13T05:16:03.380Z,0.40
2023-05-13T05:18:31.751Z,0.40
2023-05-13T05:21:01.771Z,0.38
2023-05-13T05:23:30.010Z,0.40
2023-05-13T05:26:10.475Z,0.30
2023-05-13T05:28:40.125Z,0.32
2023-05-13T05:31:08.006Z,0.30
2023-05-13T05:33:35.847Z,0.30
2023-05-13T05:36:03.491Z,0.30
2023-05-13T05:38:31.020Z,0.40
2023-05-13T05:41:01.015Z,0.45
2023-05-13T05:43:29.611Z,0.30
2023-05-13T05:45:57.080Z,0.32
2023-05-13T05:48:25.984Z,0.40
2023-05-13T05:50:55.476Z,0.40
2023-05-13T05:53:29.970Z,0.30
2023-05-13T05:55:57.486Z,0.30
2023-05-13T05:58:27.215Z,0.45
2023-05-13T06:00:55.407Z,0.40
2023-05-13T06:03:22.910Z,0.40
2023-05-13T06:05:50.625Z,0.40
2023-05-13T06:08:19.446Z,0.40
2023-05-13T06:10:47.246Z,0.40
2023-05-13T06:13:15.882Z,0.40
2023-05-13T06:15:44.710Z,0.40
2023-05-13T06:18:12.598Z,0.40
2023-05-13T06:20:40.119Z,0.30
2023-05-13T06:23:07.564Z,0.40
2023-05-13T06:25:35.030Z,0.40
2023-05-13T06:28:03.314Z,0.30
2023-05-13T06:30:31.134Z,0.38
2023-05-13T06:33:01.964Z,0.30
2023-05-13T06:35:30.910Z,0.40
2023-05-13T06:37:59.056Z,0.40
2023-05-13T06:40:26.899Z,0.40
2023-05-13T06:42:55.295Z,0.40
2023-05-13T06:45:29.509Z,0.30
2023-05-13T06:47:57.681Z,0.35
2023-05-13T06:50:26.516Z,0.47
2023-05-13T06:52:53.957Z,0.30
2023-05-13T06:55:21.622Z,0.40
2023-05-13T06:57:49.083Z,0.30
2023-05-13T07:00:17.671Z,0.40
2023-05-13T07:02:45.264Z,0.30
2023-05-13T07:05:12.964Z,0.32
2023-05-13T07:07:43.160Z,0.40
2023-05-13T07:10:10.872Z,0.40
2023-05-13T07:12:38.540Z,0.40
2023-05-13T07:15:06.528Z,0.40
2023-05-13T07:17:34.050Z,0.35
2023-05-13T07:20:01.762Z,0.40
2023-05-13T07:22:29.214Z,0.30
2023-05-13T07:24:58.410Z,0.30
2023-05-13T07:27:25.862Z,0.30
2023-05-13T07:29:53.266Z,0.30
2023-05-13T07:32:20.737Z,0.30
2023-05-13T07:34:48.186Z,0.30
2023-05-13T07:37:15.585Z,0.30
2023-05-13T07:39:43.032Z,0.40
2023-05-13T07:42:11.796Z,0.28
2023-05-13T07:44:40.354Z,0.30
2023-05-13T07:47:07.977Z,0.30
2023-05-13T07:49:35.433Z,0.30
2023-05-13T07:52:03.173Z,0.35
2023-05-13T07:54:30.682Z,0.30
2023-05-13T07:56:58.097Z,0.20
2023-05-13T07:59:26.900Z,0.40
2023-05-13T08:01:54.300Z,0.30
2023-05-13T08:04:21.845Z,0.32
2023-05-13T08:06:49.385Z,0.30
2023-05-13T08:09:16.793Z,0.40
2023-05-13T08:11:44.244Z,0.40
2023-05-13T08:14:11.732Z,0.38
2023-05-13T08:16:40.902Z,0.30
2023-05-13T08:19:08.580Z,0.30
2023-05-13T08:21:36.107Z,0.30
2023-05-13T08:24:03.517Z,0.30
2023-05-13T08:26:30.921Z,0.38
2023-05-13T08:28:58.381Z,0.30
2023-05-13T08:31:26.116Z,0.30
2023-05-13T08:33:54.966Z,0.40
2023-05-13T08:36:22.906Z,0.30
2023-05-13T08:38:50.394Z,0.30
2023-05-13T08:41:20.504Z,0.30
2023-05-13T08:43:50.664Z,0.30
2023-05-13T08:46:19.116Z,0.30
2023-05-13T08:48:46.710Z,0.30
2023-05-13T08:51:15.506Z,0.30
2023-05-13T08:53:43.843Z,0.32
2023-05-13T08:56:12.360Z,0.30
2023-05-13T08:58:39.866Z,0.40
2023-05-13T09:01:08.147Z,0.35
2023-05-13T09:03:36.123Z,0.30
2023-05-13T09:06:03.873Z,0.35
2023-05-13T09:08:33.216Z,0.40
2023-05-13T09:11:00.829Z,0.30
2023-05-13T09:13:28.330Z,0.30
2023-05-13T09:15:55.856Z,0.30
2023-05-13T09:18:30.410Z,0.30
2023-05-13T09:20:57.988Z,0.30
2023-05-13T09:23:25.445Z,0.35
2023-05-13T09:25:54.266Z,0.30
2023-05-13T09:28:23.519Z,0.20
2023-05-13T09:30:55.682Z,0.30
2023-05-13T09:33:23.170Z,0.30
2023-05-13T09:35:52.541Z,0.22
2023-05-13T09:38:20.884Z,0.30
2023-05-13T09:40:52.480Z,0.30
2023-05-13T09:43:21.682Z,0.30
2023-05-13T09:45:49.275Z,0.20
2023-05-13T09:48:16.690Z,0.30
2023-05-13T09:50:51.931Z,0.20
2023-05-13T09:53:20.589Z,0.30
2023-05-13T09:55:48.499Z,0.20
2023-05-13T09:58:16.023Z,0.20
2023-05-13T10:00:45.300Z,0.20
2023-05-13T10:03:13.036Z,0.30
2023-05-13T10:05:40.814Z,0.22
2023-05-13T10:08:09.625Z,0.20
2023-05-13T10:10:37.153Z,0.25
2023-05-13T10:13:05.606Z,0.30
2023-05-13T10:15:33.350Z,0.25
2023-05-13T10:18:03.684Z,0.30
2023-05-13T10:20:32.628Z,0.30
2023-05-13T10:23:00.331Z,0.30
2023-05-13T10:25:28.155Z,0.20
2023-05-13T10:27:56.996Z,0.30
2023-05-13T10:30:27.409Z,0.30
2023-05-13T10:32:55.485Z,0.20
2023-05-13T10:35:25.002Z,0.20
2023-05-13T10:37:57.348Z,0.20
2023-05-13T10:40:45.680Z,0.20
2023-05-13T10:43:17.039Z,0.32
2023-05-13T10:45:48.278Z,0.30
2023-05-13T10:48:16.582Z,0.30
2023-05-13T10:50:53.744Z,0.30
2023-05-13T10:53:23.205Z,0.30
2023-05-13T10:55:53.503Z,0.20
2023-05-13T10:58:22.482Z,0.20
2023-05-13T11:00:50.830Z,0.20
2023-05-13T11:03:29.592Z,0.30
2023-05-13T11:06:05.138Z,0.30
2023-05-13T11:08:42.370Z,0.20
2023-05-13T11:11:19.855Z,0.20
2023-05-13T11:13:47.421Z,0.22
2023-05-13T11:16:15.057Z,0.28
2023-05-13T11:18:42.682Z,0.30
2023-05-13T11:21:11.504Z,0.30
2023-05-13T11:23:51.832Z,0.20
2023-05-13T11:26:21.240Z,0.20
2023-05-13T11:28:55.353Z,0.30
2023-05-13T11:31:23.351Z,0.20
2023-05-13T11:34:10.367Z,0.30
2023-05-13T11:36:40.345Z,0.20
2023-05-13T11:39:14.717Z,0.20
2023-05-13T11:41:43.083Z,0.20
2023-05-13T11:44:11.672Z,0.10
2023-05-13T11:46:39.081Z,0.20
2023-05-13T11:49:07.457Z,0.20
2023-05-13T11:51:35.189Z,0.20
2023-05-13T11:54:04.594Z,0.20
2023-05-13T11:56:32.104Z,0.20
2023-05-13T11:59:15.546Z,0.20
2023-05-13T12:01:42.985Z,0.20
2023-05-13T12:04:10.391Z,0.20
2023-05-13T12:06:44.124Z,0.30
2023-05-13T12:09:13.678Z,0.20
2023-05-13T12:11:41.603Z,0.20
2023-05-13T12:14:09.235Z,0.20
2023-05-13T12:16:36.811Z,0.20
2023-05-13T12:19:07.382Z,0.25
2023-05-13T12:21:35.314Z,0.20
2023-05-13T12:24:02.821Z,0.20
2023-05-13T12:26:31.638Z,0.20
2023-05-13T12:28:59.967Z,0.15
2023-05-13T12:31:27.608Z,0.20
2023-05-13T12:33:55.169Z,0.10
2023-05-13T12:36:25.481Z,0.20
2023-05-13T12:38:59.870Z,0.20
2023-05-13T12:41:28.877Z,0.20
2023-05-13T12:43:58.156Z,0.20
2023-05-13T12:46:25.630Z,0.20
2023-05-13T12:48:53.658Z,0.20
2023-05-13T12:51:21.096Z,0.20
2023-05-13T12:53:48.524Z,0.15
2023-05-13T12:56:16.028Z,0.20
2023-05-13T12:58:43.519Z,0.20
2023-05-13T13:01:12.388Z,0.20
2023-05-13T13:03:40.159Z,0.20
2023-05-13T13:06:07.779Z,0.20
2023-05-13T13:08:35.901Z,0.20
2023-05-13T13:11:04.127Z,0.20
2023-05-13T13:13:32.308Z,0.10
2023-05-13T13:15:59.858Z,0.20
2023-05-13T13:18:28.760Z,0.20
2023-05-13T13:20:56.274Z,0.20
2023-05-13T13:23:23.733Z,0.20
2023-05-13T13:25:51.157Z,0.30
2023-05-13T13:28:18.653Z,0.20
2023-05-13T13:30:47.485Z,0.20
2023-05-13T13:33:15.960Z,0.10
2023-05-13T13:35:45.233Z,0.20
2023-05-13T13:38:12.628Z,0.20
2023-05-13T13:40:40.112Z,0.20
2023-05-13T13:43:08.320Z,0.20
2023-05-13T13:45:35.825Z,0.10
2023-05-13T13:48:03.698Z,0.20
2023-05-13T13:50:31.183Z,0.10
2023-05-13T13:52:59.956Z,0.25
2023-05-13T13:55:27.493Z,0.20
2023-05-13T13:57:54.888Z,0.10
2023-05-13T14:00:22.525Z,0.20
2023-05-13T14:02:50.323Z,0.10
2023-05-13T14:05:18.125Z,0.10
2023-05-13T14:07:46.241Z,0.20
2023-05-13T14:10:15.031Z,0.20
2023-05-13T14:12:42.524Z,0.20
2023-05-13T14:15:10.222Z,0.20
2023-05-13T14:17:37.658Z,0.10
2023-05-13T14:20:05.571Z,0.15
2023-05-13T14:22:33.041Z,0.20
2023-05-13T14:25:01.227Z,0.20
2023-05-13T14:27:30.002Z,0.10
2023-05-13T14:29:57.414Z,0.10
2023-05-13T14:32:24.866Z,0.10
2023-05-13T14:34:52.324Z,0.10
2023-05-13T14:37:20.248Z,0.10
2023-05-13T14:39:49.940Z,0.15
2023-05-13T14:42:17.852Z,0.10
2023-05-13T14:44:46.750Z,0.17
2023-05-13T14:47:14.227Z,0.20
2023-05-13T14:49:41.645Z,0.20
2023-05-13T14:52:09.129Z,0.10
2023-05-13T14:54:37.851Z,0.13
2023-05-13T14:57:06.414Z,0.10
2023-05-13T14:59:33.987Z,0.20
2023-05-13T15:02:03.858Z,0.20
2023-05-13T15:04:31.406Z,0.25
2023-05-13T15:06:59.286Z,0.20
2023-05-13T15:09:26.837Z,0.28
2023-05-13T15:11:54.492Z,0.20
2023-05-13T15:14:25.680Z,0.20
2023-05-13T15:16:53.430Z,0.20
2023-05-13T15:19:22.263Z,0.20
2023-05-13T15:21:49.747Z,0.20
2023-05-13T15:24:17.193Z,0.17
2023-05-13T15:26:44.673Z,0.20
2023-05-13T15:29:12.125Z,0.20
2023-05-13T15:31:39.597Z,0.20
2023-05-13T15:34:07.000Z,0.20
2023-05-13T15:36:35.811Z,0.20
2023-05-13T15:39:04.422Z,0.20
2023-05-13T15:41:31.849Z,0.20
2023-05-13T15:43:59.481Z,0.20
2023-05-13T15:46:27.019Z,0.10
2023-05-13T15:48:54.503Z,0.20
2023-05-13T15:51:21.927Z,0.20
2023-05-13T15:53:50.731Z,0.15
2023-05-13T15:56:18.160Z,0.20
2023-05-13T15:58:45.618Z,0.20
2023-05-13T16:01:13.232Z,0.30
2023-05-13T16:03:40.684Z,0.20
2023-05-13T16:06:08.217Z,0.20
2023-05-13T16:08:35.651Z,0.20
2023-05-13T16:11:04.624Z,0.20
2023-05-13T16:13:32.050Z,0.20
2023-05-13T16:15:59.494Z,0.20
2023-05-13T16:18:27.066Z,0.20
2023-05-13T16:20:54.884Z,0.20
2023-05-13T16:23:22.304Z,0.20
2023-05-13T16:25:49.848Z,0.20
2023-05-13T16:28:18.884Z,0.10
2023-05-13T16:30:46.757Z,0.20
2023-05-13T16:33:15.844Z,0.20
2023-05-13T16:35:43.314Z,0.17
2023-05-13T16:38:10.741Z,0.20
2023-05-13T16:40:38.166Z,0.20
2023-05-13T16:43:05.732Z,0.20
2023-05-13T16:45:34.475Z,0.20
2023-05-13T16:48:02.011Z,0.20
2023-05-13T16:50:29.926Z,0.10
2023-05-13T16:52:57.659Z,0.20
2023-05-13T16:55:25.946Z,0.13
2023-05-13T16:57:53.860Z,0.20
2023-05-13T17:00:21.537Z,0.20
2023-05-13T17:02:50.563Z,0.20
2023-05-13T17:05:18.464Z,0.20
2023-05-13T17:07:45.952Z,0.22
2023-05-13T17:10:13.469Z,0.20
2023-05-13T17:12:40.886Z,0.20
2023-05-13T17:15:08.662Z,0.20
2023-05-13T17:17:36.181Z,0.20
2023-05-13T17:20:05.590Z,0.20
2023-05-13T17:22:32.997Z,0.20
2023-05-13T17:25:00.405Z,0.20
2023-05-13T17:27:28.622Z,0.20
2023-05-13T17:29:56.186Z,0.20
2023-05-13T17:32:23.607Z,0.20
2023-05-13T17:34:51.240Z,0.20
2023-05-13T17:37:20.079Z,0.20
2023-05-13T17:39:47.478Z,0.20
2023-05-13T17:42:14.896Z,0.20
2023-05-13T17:44:42.300Z,0.25
2023-05-13T17:47:09.709Z,0.20
2023-05-13T17:49:37.249Z,0.20
2023-05-13T17:52:05.001Z,0.20
2023-05-13T17:54:33.785Z,0.20
2023-05-13T17:57:01.767Z,0.20
2023-05-13T17:59:29.186Z,0.20
2023-05-13T18:01:56.663Z,0.13
2023-05-13T18:04:24.127Z,0.10
2023-05-13T18:06:51.593Z,0.20
2023-05-13T18:09:19.777Z,0.20
2023-05-13T18:11:48.524Z,0.20
2023-05-13T18:14:15.973Z,0.20
2023-05-13T18:16:43.642Z,0.20
2023-05-13T18:19:11.224Z,0.20
2023-05-13T18:21:38.776Z,0.20
2023-05-13T18:24:06.739Z,0.20
2023-05-13T18:26:34.251Z,0.20
2023-05-13T18:29:03.031Z,0.20
2023-05-13T18:31:34.587Z,0.20
2023-05-13T18:34:02.074Z,0.20
2023-05-13T18:36:29.551Z,0.20
2023-05-13T18:38:57.020Z,0.30
2023-05-13T18:41:24.744Z,0.30
2023-05-13T18:43:52.165Z,0.30
2023-05-13T18:46:21.046Z,0.40
2023-05-13T18:48:48.466Z,0.30
2023-05-13T18:51:16.425Z,0.30
2023-05-13T18:53:43.886Z,0.30
2023-05-13T18:56:11.649Z,0.25
2023-05-13T18:58:39.320Z,0.30
2023-05-13T19:01:06.863Z,0.30
2023-05-13T19:03:36.079Z,0.30
2023-05-13T19:06:03.619Z,0.30
2023-05-13T19:08:31.142Z,0.40
2023-05-13T19:10:58.667Z,0.35
2023-05-13T19:13:30.697Z,0.30
2023-05-13T19:16:07.342Z,0.30
2023-05-13T19:18:36.129Z,0.30
2023-05-13T19:21:03.579Z,0.30
2023-05-13T19:23:31.348Z,0.30
2023-05-13T19:25:58.994Z,0.30
2023-05-13T19:28:28.013Z,0.30
2023-05-13T19:30:55.489Z,0.30
2023-05-13T19:33:22.976Z,0.30
2023-05-13T19:35:51.772Z,0.30
2023-05-13T19:38:20.315Z,0.30
2023-05-13T19:40:47.977Z,0.40
2023-05-13T19:43:15.688Z,0.30
2023-05-13T19:45:43.162Z,0.47
2023-05-13T19:48:10.658Z,0.40
2023-05-13T19:50:38.143Z,0.30
2023-05-13T19:53:06.946Z,0.38
2023-05-13T19:55:35.553Z,0.28
2023-05-13T19:58:03.062Z,0.40
2023-05-13T20:00:30.709Z,0.30
2023-05-13T20:02:58.327Z,0.40
2023-05-13T20:05:25.850Z,0.30
2023-05-13T20:07:53.288Z,0.32
2023-05-13T20:10:22.363Z,0.30
2023-05-13T20:12:49.942Z,0.30
2023-05-13T20:15:18.667Z,0.30
2023-05-13T20:17:46.462Z,0.38
2023-05-13T20:20:13.998Z,0.30
2023-05-13T20:22:41.409Z,0.40
2023-05-13T20:25:09.144Z,0.30
2023-05-13T20:27:37.890Z,0.30
2023-05-13T20:30:05.608Z,0.30
2023-05-13T20:32:33.135Z,0.30
2023-05-13T20:35:00.568Z,0.30
2023-05-13T20:37:28.424Z,0.35
2023-05-13T20:39:55.936Z,0.30
2023-05-13T20:42:24.143Z,0.30
2023-05-13T20:44:52.966Z,0.30
2023-05-13T20:47:20.814Z,0.38
2023-05-13T20:49:48.264Z,0.28
2023-05-13T20:52:15.977Z,0.30
2023-05-13T20:54:43.433Z,0.30
2023-05-13T20:57:11.135Z,0.30
2023-05-13T20:59:38.576Z,0.30
2023-05-13T21:02:07.939Z,0.30
2023-05-13T21:04:35.358Z,0.30
2023-05-13T21:07:04.382Z,0.30
2023-05-13T21:09:31.834Z,0.35
2023-05-13T21:11:59.256Z,0.30
2023-05-13T21:14:26.731Z,0.40
2023-05-13T21:16:54.191Z,0.40
2023-05-13T21:19:23.677Z,0.30
2023-05-13T21:21:51.307Z,0.30
2023-05-13T21:24:19.164Z,0.30
2023-05-13T21:26:46.684Z,0.40
2023-05-13T21:29:14.184Z,0.30
2023-05-13T21:31:41.705Z,0.30
2023-05-13T21:34:09.136Z,0.35
2023-05-13T21:36:38.902Z,0.40
2023-05-13T21:39:06.483Z,0.30
2023-05-13T21:41:33.920Z,0.38
2023-05-13T21:44:01.360Z,0.30
2023-05-13T21:46:28.918Z,0.30
2023-05-13T21:48:56.497Z,0.30
2023-05-13T21:51:23.994Z,0.30
2023-05-13T21:53:52.778Z,0.38
2023-05-13T21:56:21.042Z,0.30
2023-05-13T21:58:49.621Z,0.30
2023-05-13T22:01:17.117Z,0.30
2023-05-13T22:03:44.606Z,0.30
2023-05-13T22:06:12.026Z,0.30
2023-05-13T22:08:39.568Z,0.30
2023-05-13T22:11:08.435Z,0.30
2023-05-13T22:13:36.098Z,0.30
2023-05-13T22:16:03.603Z,0.30
2023-05-13T22:18:31.269Z,0.30
2023-05-13T22:21:00.623Z,0.30
2023-05-13T22:23:28.113Z,0.30
2023-05-13T22:25:55.512Z,0.40
2023-05-13T22:28:24.372Z,0.30
2023-05-13T22:30:52.284Z,0.32
2023-05-13T22:33:19.731Z,0.30
2023-05-13T22:35:47.202Z,0.30
2023-05-13T22:38:14.614Z,0.30
2023-05-13T22:40:42.074Z,0.30
2023-05-13T22:43:09.486Z,0.30
2023-05-13T22:45:38.733Z,0.50
2023-05-13T22:48:06.386Z,0.40
2023-05-13T22:50:33.871Z,0.22
2023-05-13T22:53:01.659Z,0.30
2023-05-13T22:55:29.100Z,0.30
2023-05-13T22:57:56.520Z,0.30
2023-05-13T23:00:24.205Z,0.28
2023-05-13T23:02:53.251Z,0.30
2023-05-13T23:05:20.931Z,0.30
2023-05-13T23:07:48.326Z,0.30
2023-05-13T23:10:16.106Z,0.40
2023-05-13T23:12:43.537Z,0.30
2023-05-13T23:15:14.182Z,0.30
2023-05-13T23:17:41.694Z,0.30
2023-05-13T23:20:11.920Z,0.35
2023-05-13T23:22:39.436Z,0.40
2023-05-13T23:25:07.413Z,0.35
2023-05-13T23:27:35.322Z,0.40
2023-05-13T23:30:02.966Z,0.32
2023-05-13T23:32:30.451Z,0.40
2023-05-13T23:34:58.054Z,0.30
2023-05-13T23:37:26.875Z,0.40
2023-05-13T23:39:54.349Z,0.30
2023-05-13T23:42:21.825Z,0.40
2023-05-13T23:44:49.327Z,0.30
2023-05-13T23:47:16.776Z,0.40
2023-05-13T23:49:44.219Z,0.40
2023-05-13T23:52:11.794Z,0.35
2023-05-13T23:54:40.668Z,0.38
2023-05-13T23:57:08.088Z,0.40
2023-05-13T23:59:35.507Z,0.40
